createdAt,value
2018-05-02T08:17:59.374Z,56.00
2018-05-02T08:20:29.508Z,55.90
2018-05-02T08:22:59.274Z,55.90
2018-05-02T08:25:28.809Z,55.40
2018-05-02T08:27:57.557Z,55.40
2018-05-02T08:30:26.449Z,54.80
2018-05-02T08:32:55.515Z,53.90
2018-05-02T08:35:24.328Z,53.50
2018-05-02T08:37:53.861Z,52.60
2018-05-02T08:40:21.974Z,52.10
2018-05-02T08:42:51.669Z,50.70
2018-05-02T08:45:20.836Z,50.20
2018-05-02T08:47:50.141Z,50.20
2018-05-02T08:50:18.789Z,47.70
2018-05-02T08:52:47.752Z,47.10
2018-05-02T08:55:18.550Z,45.70
2018-05-02T08:57:47.445Z,45.60
2018-05-02T09:00:16.153Z,45.20
2018-05-02T09:02:45.538Z,44.70
2018-05-02T09:05:14.307Z,44.60
2018-05-02T09:07:42.393Z,44.00
2018-05-02T09:10:10.963Z,44.00
2018-05-02T09:12:39.073Z,43.00
2018-05-02T09:15:08.627Z,40.90
2018-05-02T09:17:39.699Z,40.80
2018-05-02T09:20:08.576Z,39.80
2018-05-02T09:22:37.551Z,40.00
2018-05-02T09:25:06.052Z,40.30
2018-05-02T09:27:34.824Z,39.40
2018-05-02T09:30:03.615Z,39.70
2018-05-02T09:32:32.763Z,38.60
2018-05-02T09:35:01.443Z,38.40
2018-05-02T09:37:30.296Z,39.40
2018-05-02T09:39:58.821Z,39.40
2018-05-02T09:42:27.669Z,38.40
2018-05-02T09:44:56.345Z,37.10
2018-05-02T09:47:25.359Z,37.00
2018-05-02T09:49:53.429Z,36.10
2018-05-02T09:52:21.480Z,36.60
2018-05-02T09:54:50.061Z,35.00
2018-05-02T09:57:18.772Z,33.40
2018-05-02T09:59:47.530Z,32.10
2018-05-02T10:02:17.657Z,32.30
2018-05-02T10:04:46.161Z,31.50
2018-05-02T10:07:15.007Z,31.00
2018-05-02T10:09:44.120Z,30.00
2018-05-02T10:12:12.933Z,30.30
2018-05-02T10:14:42.094Z,30.70
2018-05-02T10:17:11.140Z,30.00
2018-05-02T10:19:39.896Z,30.00
2018-05-02T10:22:08.641Z,29.60
2018-05-02T10:24:37.693Z,29.60
2018-05-02T10:27:06.762Z,29.60
2018-05-02T10:29:35.781Z,29.70
2018-05-02T10:32:04.441Z,29.70
2018-05-02T10:34:32.961Z,29.70
2018-05-02T10:37:02.854Z,29.10
2018-05-02T10:39:31.669Z,29.00
2018-05-02T10:42:01.438Z,29.80
2018-05-02T10:44:30.253Z,29.80
2018-05-02T10:46:59.017Z,30.40
2018-05-02T10:49:28.139Z,29.60
2018-05-02T10:51:57.003Z,30.90
2018-05-02T10:54:26.036Z,31.00
2018-05-02T10:56:55.531Z,29.20
2018-05-02T10:59:25.300Z,28.60
2018-05-02T11:01:54.696Z,28.50
2018-05-02T11:04:23.417Z,27.80
2018-05-02T11:06:52.217Z,29.80
2018-05-02T11:09:21.397Z,29.50
2018-05-02T11:11:50.029Z,30.10
2018-05-02T11:14:19.415Z,30.00
2018-05-02T11:16:49.073Z,30.00
2018-05-02T11:19:17.802Z,29.90
2018-05-02T11:21:46.680Z,29.40
2018-05-02T11:24:15.681Z,29.40
2018-05-02T11:26:44.737Z,29.30
2018-05-02T11:29:13.373Z,29.30
2018-05-02T11:31:43.028Z,29.20
2018-05-02T11:34:11.121Z,29.10
2018-05-02T11:36:39.197Z,28.10
2018-05-02T11:39:07.517Z,27.60
2018-05-02T11:41:36.873Z,26.40
2018-05-02T11:44:05.232Z,26.30
2018-05-02T11:46:33.948Z,25.40
2018-05-02T11:49:02.933Z,24.40
2018-05-02T11:51:31.849Z,25.20
2018-05-02T11:54:00.722Z,24.60
2018-05-02T11:56:29.433Z,24.50
2018-05-02T11:58:59.033Z,25.70
2018-05-02T12:01:27.717Z,25.60
2018-05-02T12:03:56.521Z,25.70
2018-05-02T12:06:26.192Z,26.60
2018-05-02T12:08:55.313Z,26.60
2018-05-02T12:11:25.243Z,26.70
2018-05-02T12:13:54.429Z,26.20
2018-05-02T12:16:22.504Z,26.20
2018-05-02T12:18:51.876Z,25.70
2018-05-02T12:21:19.969Z,25.70
2018-05-02T12:23:49.040Z,26.60
2018-05-02T12:26:17.148Z,26.60
2018-05-02T12:28:46.005Z,24.90
2018-05-02T12:31:14.829Z,25.00
2018-05-02T12:33:44.742Z,25.60
2018-05-02T12:36:15.477Z,27.00
2018-05-02T12:38:44.965Z,26.70
2018-05-02T12:41:13.053Z,26.70
2018-05-02T12:43:41.929Z,26.60
2018-05-02T12:46:11.384Z,27.60
2018-05-02T12:48:39.465Z,27.70
2018-05-02T12:51:08.274Z,27.10
2018-05-02T12:53:36.901Z,26.90
2018-05-02T12:56:06.754Z,26.10
2018-05-02T12:58:35.654Z,26.00
2018-05-02T13:01:04.245Z,26.10
2018-05-02T13:03:33.757Z,27.50
2018-05-02T13:06:02.545Z,27.80
2018-05-02T13:08:31.232Z,26.80
2018-05-02T13:11:00.232Z,27.90
2018-05-02T13:13:29.232Z,27.80
2018-05-02T13:15:58.037Z,28.00
2018-05-02T13:18:27.593Z,28.70
2018-05-02T13:20:56.313Z,28.70
2018-05-02T13:23:25.279Z,28.90
2018-05-02T13:25:54.789Z,28.70
2018-05-02T13:28:23.575Z,28.70
2018-05-02T13:30:52.595Z,29.10
2018-05-02T13:33:21.555Z,28.20
2018-05-02T13:35:50.241Z,28.90
2018-05-02T13:38:18.925Z,30.00
2018-05-02T13:40:47.612Z,29.00
2018-05-02T13:43:16.421Z,29.20
2018-05-02T13:45:45.425Z,29.10
2018-05-02T13:48:15.536Z,29.90
2018-05-02T13:50:45.055Z,30.00
2018-05-02T13:53:14.529Z,29.60
2018-05-02T13:55:43.413Z,29.50
2018-05-02T13:58:11.539Z,30.20
2018-05-02T14:00:40.452Z,31.30
2018-05-02T14:03:08.736Z,31.20
2018-05-02T14:05:36.877Z,29.70
2018-05-02T14:08:06.446Z,30.10
2018-05-02T14:10:35.337Z,30.10
2018-05-02T14:13:04.120Z,29.60
2018-05-02T14:15:32.929Z,28.80
2018-05-02T14:18:03.050Z,29.80
2018-05-02T14:20:31.819Z,29.80
2018-05-02T14:22:59.914Z,29.50
2018-05-02T14:25:30.034Z,29.30
2018-05-02T14:27:58.921Z,29.20
2018-05-02T14:30:28.418Z,30.00
2018-05-02T14:32:57.300Z,30.00
2018-05-02T14:35:25.366Z,29.60
2018-05-02T14:37:54.161Z,29.80
2018-05-02T14:40:22.225Z,30.00
2018-05-02T14:42:51.209Z,29.80
2018-05-02T14:45:19.783Z,29.50
2018-05-02T14:47:49.310Z,29.30
2018-05-02T14:50:18.200Z,29.30
2018-05-02T14:52:46.279Z,29.70
2018-05-02T14:55:15.168Z,30.00
2018-05-02T14:57:43.237Z,30.50
2018-05-02T15:00:11.321Z,30.80
2018-05-02T15:02:40.383Z,30.40
2018-05-02T15:05:08.489Z,30.00
2018-05-02T15:07:36.561Z,30.30
2018-05-02T15:10:05.757Z,32.50
2018-05-02T15:12:33.829Z,31.80
2018-05-02T15:15:01.908Z,31.50
2018-05-02T15:17:31.042Z,31.80
2018-05-02T15:19:59.117Z,31.70
2018-05-02T15:22:27.189Z,32.40
2018-05-02T15:24:55.313Z,31.80
2018-05-02T15:27:24.204Z,31.90
2018-05-02T15:29:52.898Z,32.20
2018-05-02T15:32:22.713Z,31.50
2018-05-02T15:34:51.561Z,31.70
2018-05-02T15:37:19.684Z,31.70
2018-05-02T15:39:48.755Z,32.30
2018-05-02T15:42:16.797Z,32.30
2018-05-02T15:44:44.860Z,31.90
2018-05-02T15:47:13.448Z,31.70
2018-05-02T15:49:41.503Z,32.50
2018-05-02T15:52:09.552Z,33.40
2018-05-02T15:54:38.516Z,33.40
2018-05-02T15:57:07.292Z,33.20
2018-05-02T15:59:35.381Z,33.40
2018-05-02T16:02:03.464Z,34.70
2018-05-02T16:04:32.545Z,33.80
2018-05-02T16:07:00.589Z,33.70
2018-05-02T16:09:28.669Z,32.70
2018-05-02T16:11:56.778Z,33.60
2018-05-02T16:14:25.605Z,35.00
2018-05-02T16:16:53.696Z,35.00
2018-05-02T16:19:21.748Z,33.60
2018-05-02T16:21:50.046Z,33.50
2018-05-02T16:24:18.125Z,33.30
2018-05-02T16:26:46.437Z,34.40
2018-05-02T16:29:15.296Z,34.70
2018-05-02T16:31:43.384Z,34.80
2018-05-02T16:34:12.954Z,34.20
2018-05-02T16:36:41.679Z,34.10
2018-05-02T16:39:11.211Z,33.90
2018-05-02T16:41:40.690Z,33.80
2018-05-02T16:44:09.545Z,33.90
2018-05-02T16:46:38.421Z,33.90
2018-05-02T16:49:07.212Z,34.00
2018-05-02T16:51:36.420Z,35.00
2018-05-02T16:54:05.185Z,35.60
2018-05-02T16:56:33.374Z,36.10
2018-05-02T16:59:01.341Z,35.70
2018-05-02T17:01:30.129Z,35.80
2018-05-02T17:03:58.993Z,35.80
2018-05-02T17:06:27.482Z,36.80
2018-05-02T17:08:55.581Z,35.30
2018-05-02T17:11:23.675Z,36.30
2018-05-02T17:13:51.775Z,35.40
2018-05-02T17:16:20.616Z,36.90
2018-05-02T17:18:48.700Z,37.00
2018-05-02T17:21:16.788Z,37.20
2018-05-02T17:23:44.861Z,37.60
2018-05-02T17:26:12.935Z,37.20
2018-05-02T17:28:42.316Z,38.70
2018-05-02T17:31:10.389Z,38.60
2018-05-02T17:33:38.434Z,37.40
2018-05-02T17:36:06.756Z,38.50
2018-05-02T17:38:35.589Z,40.00
2018-05-02T17:41:03.673Z,39.90
2018-05-02T17:43:32.277Z,41.70
2018-05-02T17:46:00.353Z,42.30
2018-05-02T17:48:28.424Z,43.30
2018-05-02T17:50:57.213Z,43.40
2018-05-02T17:53:26.081Z,44.40
2018-05-02T17:55:54.157Z,45.30
2018-05-02T17:58:22.244Z,46.00
2018-05-02T18:00:50.305Z,47.20
2018-05-02T18:03:19.428Z,48.00
2018-05-02T18:05:47.534Z,48.60
2018-05-02T18:08:16.344Z,49.70
2018-05-02T18:10:44.957Z,49.70
2018-05-02T18:13:13.029Z,50.20
2018-05-02T18:15:41.101Z,50.60
2018-05-02T18:18:09.465Z,51.10
2018-05-02T18:20:37.553Z,51.80
2018-05-02T18:23:05.637Z,51.90
2018-05-02T18:25:33.700Z,52.50
2018-05-02T18:28:01.795Z,52.50
2018-05-02T18:30:29.820Z,53.80
2018-05-02T18:32:58.229Z,54.30
2018-05-02T18:35:27.500Z,54.80
2018-05-02T18:37:55.572Z,54.70
2018-05-02T18:40:23.644Z,55.50
2018-05-02T18:42:51.749Z,55.30
2018-05-02T18:45:20.637Z,55.20
2018-05-02T18:47:49.732Z,55.20
2018-05-02T18:50:18.605Z,54.70
2018-05-02T18:52:46.685Z,54.60
2018-05-02T18:55:14.760Z,54.30
2018-05-02T18:57:42.804Z,54.50
2018-05-02T19:00:11.799Z,54.90
2018-05-02T19:02:39.924Z,55.40
2018-05-02T19:05:08.777Z,57.70
2018-05-02T19:07:37.165Z,57.70
2018-05-02T19:10:05.233Z,56.90
2018-05-02T19:12:33.308Z,56.30
2018-05-02T19:15:01.361Z,58.00
2018-05-02T19:17:29.432Z,57.70
2018-05-02T19:19:57.493Z,57.70
2018-05-02T19:22:25.868Z,57.20
2018-05-02T19:24:53.949Z,57.60
2018-05-02T19:27:22.053Z,58.00
2018-05-02T19:29:51.199Z,58.90
2018-05-02T19:32:19.274Z,58.90
2018-05-02T19:34:47.353Z,59.60
2018-05-02T19:37:15.760Z,59.70
2018-05-02T19:39:43.845Z,59.60
2018-05-02T19:42:12.701Z,60.00
2018-05-02T19:44:41.080Z,59.80
2018-05-02T19:47:10.800Z,59.50
2018-05-02T19:49:38.864Z,59.50
2018-05-02T19:52:08.393Z,59.60
2018-05-02T19:54:36.465Z,59.00
2018-05-02T19:57:04.610Z,59.40
2018-05-02T19:59:33.712Z,59.50
2018-05-02T20:02:01.804Z,59.40
2018-05-02T20:04:31.394Z,59.30
2018-05-02T20:06:59.688Z,59.30
2018-05-02T20:09:27.767Z,59.30
2018-05-02T20:11:56.624Z,60.20
2018-05-02T20:14:24.732Z,60.20
2018-05-02T20:16:53.584Z,61.70
2018-05-02T20:19:21.668Z,61.50
2018-05-02T20:21:49.757Z,61.50
2018-05-02T20:24:17.828Z,61.50
2018-05-02T20:26:45.896Z,62.00
2018-05-02T20:29:14.244Z,61.60
2018-05-02T20:31:42.320Z,61.60
2018-05-02T20:34:10.392Z,61.50
2018-05-02T20:36:38.616Z,61.50
2018-05-02T20:39:06.630Z,62.90
2018-05-02T20:41:34.920Z,62.20
2018-05-02T20:44:03.268Z,62.40
2018-05-02T20:46:31.389Z,62.30
2018-05-02T20:48:59.408Z,62.30
2018-05-02T20:51:27.809Z,62.00
2018-05-02T20:53:55.985Z,62.90
2018-05-02T20:56:24.057Z,63.00
2018-05-02T20:58:52.345Z,63.30
2018-05-02T21:01:20.434Z,63.30
2018-05-02T21:03:48.477Z,63.40
2018-05-02T21:06:16.568Z,63.10
2018-05-02T21:08:44.620Z,63.50
2018-05-02T21:11:12.689Z,63.60
2018-05-02T21:13:40.765Z,63.90
2018-05-02T21:16:08.848Z,63.80
2018-05-02T21:18:36.912Z,64.40
2018-05-02T21:21:05.282Z,64.60
2018-05-02T21:23:33.354Z,65.50
2018-05-02T21:26:02.377Z,65.60
2018-05-02T21:28:30.449Z,65.70
2018-05-02T21:30:59.333Z,66.40
2018-05-02T21:33:27.717Z,66.40
2018-05-02T21:35:57.303Z,67.10
2018-05-02T21:38:25.393Z,67.10
2018-05-02T21:40:53.477Z,67.20
2018-05-02T21:43:21.557Z,67.70
2018-05-02T21:45:50.381Z,68.80
2018-05-02T21:48:18.705Z,68.80
2018-05-02T21:50:47.606Z,68.00
2018-05-02T21:53:16.464Z,68.40
2018-05-02T21:55:44.844Z,68.40
2018-05-02T21:58:13.698Z,69.30
2018-05-02T22:00:42.728Z,69.80
2018-05-02T22:03:10.806Z,69.70
2018-05-02T22:05:38.877Z,70.20
2018-05-02T22:08:08.112Z,70.30
2018-05-02T22:10:36.156Z,70.40
2018-05-02T22:13:04.994Z,70.30
2018-05-02T22:15:33.412Z,70.90
2018-05-02T22:18:01.473Z,69.60
2018-05-02T22:20:29.537Z,70.30
2018-05-02T22:22:57.668Z,70.80
2018-05-02T22:25:26.534Z,71.50
2018-05-02T22:27:55.396Z,72.60
2018-05-02T22:30:23.493Z,72.60
2018-05-02T22:32:51.532Z,73.30
2018-05-02T22:35:19.637Z,72.30
2018-05-02T22:37:47.705Z,73.40
2018-05-02T22:40:15.780Z,73.50
2018-05-02T22:42:43.861Z,73.60
2018-05-02T22:45:12.149Z,74.50
2018-05-02T22:47:40.985Z,74.30
2018-05-02T22:50:09.112Z,74.30
2018-05-02T22:52:37.201Z,74.60
2018-05-02T22:55:05.289Z,75.10
2018-05-02T22:57:33.330Z,75.10
2018-05-02T23:00:02.197Z,75.90
2018-05-02T23:02:30.509Z,75.90
2018-05-02T23:04:58.489Z,75.90
2018-05-02T23:07:26.968Z,75.90
2018-05-02T23:09:55.053Z,76.30
2018-05-02T23:12:23.119Z,76.40
2018-05-02T23:14:51.180Z,76.70
2018-05-02T23:17:19.261Z,77.10
2018-05-02T23:19:47.335Z,77.10
2018-05-02T23:22:15.741Z,77.30
2018-05-02T23:24:43.830Z,77.30
2018-05-02T23:27:11.869Z,77.10
2018-05-02T23:29:40.470Z,76.70
2018-05-02T23:32:10.043Z,77.30
2018-05-02T23:34:38.123Z,77.30
2018-05-02T23:37:06.499Z,77.50
2018-05-02T23:39:34.791Z,77.50
2018-05-02T23:42:02.857Z,77.60
2018-05-02T23:44:31.156Z,77.70
2018-05-02T23:46:59.204Z,77.60
2018-05-02T23:49:27.878Z,77.50
2018-05-02T23:51:55.949Z,77.50
2018-05-02T23:54:24.029Z,77.60
2018-05-02T23:56:52.332Z,77.80
2018-05-02T23:59:20.371Z,77.70
